Toledo, España

8:52 PM CEST en Septiembre 02, 2014 (GMT +0200)
FV Toledo PV | Change Station
CLOSE
Current Station
Estación meteorológica personal
Location: Puebal De Montalban, TOLEDO
Altura: 1413 ft
Estaciones meteorológicas cercanas

Alt 1413 ft 39.83 °N, 4.29 °W | Updated 6 minutes ago

Partly Cloudy
Parcialmente nublado
97.2 ° F
Sensación térmica 92 ° F
N
0.0
Viento Variable Viento desde Norte
Gusts 0.0 mph

Hoy
Alta -- | Baja -- ° F
--% Posibilidad de precipitaciones
Ayer
Alta -- | Baja -- ° F
Precip. -- pul
7:44 AM 8:46 PM
Cuarto creciente, 54% visible
Presión 29.92 pul
Visibilidad 6.2 Millas
Nubes Baja 4500 ft
Índice de calor 92 ° F
Punto de rocío 36 ° F
Humedad 12%
Precipitaciones 0.00 pul
Espesor de la nieve No disponible.
UV 0 de una escala de 12
Polen No disponible.
Calidad del aire No disponible.
Flu Activity No disponible.
SPECI LEGT 021830Z 18020G37KT 9999 FEW045CB 31/07 Q1013

More Conditions Fewer Conditions

Presión 29.92 pul
Visibilidad 6.2 Millas
Nubes Baja 4500 ft
Índice de calor 92 ° F
Punto de rocío 36 ° F
Humedad 12%
Precipitaciones 0.00 pul
Espesor de la nieve No disponible.
UV 0 de una escala de 12
Polen No disponible.
Calidad del aire No disponible.
Flu Activity No disponible.
SPECI LEGT 021830Z 18020G37KT 9999 FEW045CB 31/07 Q1013

More Conditions Fewer Conditions

10-Day Weather Forecast

Almanac

Astronomía

Sep. 02, 2014 Salida Puesta
Hora real 7:44 AM CEST 8:46 PM CEST
Crepúsculo civil 7:17 AM CEST 9:13 PM CEST
Crepúsculo náutico 6:44 AM CEST 9:46 PM CEST
Crepúsculo astronómico 6:09 AM CEST 10:20 PM CEST
Luna 3:14 PM CEST 12:38 AM CEST
Horas de luz 13h 56m
Horas de luz
13h 01m
Tomorrow will be 2m 32s shorter.
Cuarto creciente, 54% of the Moon is Illuminated
Hoy
Cuarto creciente
Sep 8
Luna llena
Sep 15
Cuarto menguante
Sep 24
Nueva
Oct 1
Cuarto creciente

Extremos de hoy

Máximos del país Bajas del país

Community

WunderPhotos

Upload Photos

1,749,743 ¡fotos cargadas!

WunderBlogs® & News

By Dr. Jeff Masters
Director of Meteorology, Weather Underground
By Kari Strenfel
Meteorologist, Weather Underground
By Christopher C. Burt
Weather Historian, Weather Underground
September 2, 2014
September 2, 2014
September 2, 2014

Nearby

Calidad del aire

Not available.

Grosos de nieve

Not available.

Actividad de terremotos

Ciudad Distance Mag. Tiempo y dato
No hay informes recientes de la actividad sísmica.
Magnitud mínima muestra es 2,5.

Temperaturas de aguas costeras

Lugar Temperatura
Sin partes meteorológicos de las estaciones

Estaciones meteorológicas cercanas